Time;durP1;ratioP1;P1;durP2;ratioP2;P2;SDS_P1;SDS_P2;PMS_P1;PMS_P2;Temp;Humidity;BMP_temperature;BMP_pressure;BME280_temperature;BME280_humidity;BME280_pressure;Samples;Min_cycle;Max_cycle;Signal;HPM_P1;HPM_P2
2022/06/12 00:00:54;;;;;;;63.85;43.95;;;26.10;99.90;;;;;;5073528;28;20032;-63
2022/06/12 00:03:25;;;;;;;90.45;68.05;;;26.10;99.90;;;;;;5073700;28;20048;-64
2022/06/12 00:05:55;;;;;;;33.70;22.77;;;26.10;99.90;;;;;;5073690;28;20035;-64
2022/06/12 00:08:22;;;;;;;30.13;21.25;;;26.10;99.90;;;;;;5073606;28;20032;-63
2022/06/12 00:10:52;;;;;;;25.38;19.02;;;26.10;99.90;;;;;;5073562;28;20023;-64
2022/06/12 00:13:25;;;;;;;27.52;19.35;;;26.10;99.90;;;;;;5072975;28;20158;-64
2022/06/12 00:15:53;;;;;;;24.65;19.15;;;26.00;99.90;;;;;;5053528;28;20393;-64
2022/06/12 00:18:20;;;;;;;28.58;20.85;;;26.00;99.90;;;;;;5053518;28;20023;-64
2022/06/12 00:20:47;;;;;;;46.33;29.85;;;26.10;99.90;;;;;;5053395;28;20025;-63
2022/06/12 00:23:16;;;;;;;32.95;24.10;;;26.00;99.90;;;;;;5055893;28;20100;-63
2022/06/12 00:25:43;;;;;;;29.30;20.65;;;26.00;99.90;;;;;;5073048;28;20074;-63
2022/06/12 00:28:10;;;;;;;38.67;24.75;;;26.00;99.90;;;;;;5073168;28;20031;-63
2022/06/12 00:30:37;;;;;;;42.42;27.83;;;25.90;99.90;;;;;;5072922;28;20016;-64
2022/06/12 00:33:04;;;;;;;30.95;22.95;;;26.00;99.90;;;;;;5075476;28;20069;-65
2022/06/12 00:35:34;;;;;;;30.77;21.58;;;25.90;99.90;;;;;;5083908;28;20059;-64
2022/06/12 00:38:02;;;;;;;29.40;20.40;;;25.90;99.90;;;;;;5081420;28;20016;-64
2022/06/12 00:40:30;;;;;;;44.42;32.08;;;25.80;99.90;;;;;;5073308;28;20074;-63
2022/06/12 00:43:00;;;;;;;36.70;26.08;;;25.90;99.90;;;;;;5073129;28;20028;-63
2022/06/12 00:45:30;;;;;;;33.65;23.65;;;25.90;99.90;;;;;;5072782;28;20358;-64
2022/06/12 00:47:59;;;;;;;60.83;41.63;;;25.90;99.90;;;;;;5071798;28;20445;-64
2022/06/12 00:50:26;;;;;;;35.50;22.20;;;26.00;99.90;;;;;;5069981;28;20029;-65
2022/06/12 00:52:53;;;;;;;47.53;31.98;;;25.90;99.90;;;;;;5072596;28;20473;-64
2022/06/12 00:55:27;;;;;;;38.20;25.42;;;26.00;99.90;;;;;;5073066;28;20029;-64
2022/06/12 00:57:59;;;;;;;38.40;24.50;;;25.90;99.90;;;;;;5073000;28;20560;-64
2022/06/12 01:00:25;;;;;;;66.78;43.83;;;26.00;99.90;;;;;;5069601;28;20028;-64
2022/06/12 01:02:53;;;;;;;91.75;59.35;;;26.00;99.90;;;;;;5068850;28;20025;-64
2022/06/12 01:08:09;;;;;;;108.88;61.42;;;26.10;99.90;;;;;;5072486;28;20474;-64
2022/06/12 01:10:41;;;;;;;162.93;92.70;;;26.10;99.90;;;;;;5072873;28;20031;-64
2022/06/12 01:13:11;;;;;;;;;;;26.20;99.90;;;;;;5072307;28;20017;-64
2022/06/12 01:15:43;;;;;;;68.35;48.42;;;26.30;99.90;;;;;;5069469;28;19991;-64
2022/06/12 01:18:18;;;;;;;44.25;25.75;;;26.40;99.90;;;;;;5072654;28;20017;-64
2022/06/12 01:21:00;;;;;;;39.22;24.80;;;26.40;99.90;;;;;;5072578;28;20021;-64
2022/06/12 01:23:36;;;;;;;36.90;24.23;;;26.30;99.90;;;;;;5071499;28;20025;-64
2022/06/12 01:26:13;;;;;;;39.88;24.70;;;26.40;99.90;;;;;;5070389;28;20051;-64
2022/06/12 01:28:45;;;;;;;39.83;26.75;;;26.40;99.90;;;;;;5069404;28;20052;-64
2022/06/12 01:31:13;;;;;;;;;;;26.40;99.90;;;;;;5073044;28;20043;-64
2022/06/12 01:33:56;;;;;;;51.97;30.05;;;26.50;99.90;;;;;;5072375;28;19908;-64
2022/06/12 01:36:43;;;;;;;66.05;44.15;;;26.50;99.90;;;;;;5072709;28;20028;-64
2022/06/12 01:39:10;;;;;;;77.88;50.45;;;26.60;99.90;;;;;;5064861;28;20497;-65
2022/06/12 01:41:54;;;;;;;85.10;53.85;;;26.80;99.90;;;;;;5073382;28;20025;-65
2022/06/12 01:44:27;;;;;;;63.60;41.58;;;26.80;99.90;;;;;;5074237;28;20032;-64
2022/06/12 01:47:21;;;;;;;62.50;39.25;;;26.90;99.90;;;;;;5073894;28;20020;-64
2022/06/12 01:49:58;;;;;;;52.40;33.08;;;26.90;99.90;;;;;;5075476;28;20041;-64
2022/06/12 01:52:37;;;;;;;53.72;30.70;;;27.00;99.90;;;;;;5075732;28;20376;-65
2022/06/12 01:55:06;;;;;;;49.38;31.05;;;27.10;99.90;;;;;;5074356;28;20032;-64
2022/06/12 01:57:43;;;;;;;41.97;27.65;;;27.10;99.90;;;;;;5075633;28;20105;-64
2022/06/12 02:00:12;;;;;;;57.83;33.65;;;27.10;99.90;;;;;;5075711;28;20036;-64
2022/06/12 02:02:41;;;;;;;48.00;33.35;;;27.20;99.90;;;;;;5075615;28;20031;-64
2022/06/12 02:05:13;;;;;;;47.28;29.20;;;27.30;99.90;;;;;;5075066;28;20434;-64
2022/06/12 02:08:06;;;;;;;46.05;31.73;;;27.40;99.90;;;;;;5070860;28;20024;-64
2022/06/12 02:10:50;;;;;;;53.67;33.15;;;27.40;99.90;;;;;;5049380;28;20033;-64
2022/06/12 02:13:28;;;;;;;52.92;34.53;;;27.50;99.90;;;;;;5085653;28;20020;-63
2022/06/12 02:15:54;;;;;;;45.58;29.90;;;27.50;99.90;;;;;;5073949;28;20109;-65
2022/06/12 02:18:27;;;;;;;42.95;28.90;;;27.60;99.90;;;;;;5075176;28;20287;-64
2022/06/12 02:20:59;;;;;;;36.58;25.65;;;27.60;99.90;;;;;;5069905;28;20430;-64
2022/06/12 02:23:48;;;;;;;43.65;28.27;;;27.70;99.90;;;;;;5072833;28;20070;-64
2022/06/12 02:26:20;;;;;;;38.75;28.70;;;27.80;99.90;;;;;;5042533;28;20523;-65
2022/06/12 02:28:56;;;;;;;44.17;26.67;;;27.80;99.90;;;;;;5071651;28;20025;-64
2022/06/12 02:31:29;;;;;;;29.08;21.63;;;27.80;99.90;;;;;;5080309;28;20033;-62
2022/06/12 02:34:01;;;;;;;30.13;23.30;;;27.90;99.90;;;;;;5074861;28;20099;-65
2022/06/12 02:36:42;;;;;;;29.27;22.52;;;27.90;99.90;;;;;;5073073;28;20112;-64
2022/06/12 02:39:16;;;;;;;28.77;21.73;;;28.00;99.90;;;;;;5076973;28;20081;-64
2022/06/12 02:41:50;;;;;;;31.40;21.95;;;28.00;99.90;;;;;;5074021;28;20380;-65
2022/06/12 02:44:26;;;;;;;24.40;19.40;;;28.20;99.90;;;;;;5073465;28;20032;-64
2022/06/12 02:47:18;;;;;;;27.38;19.50;;;28.20;99.90;;;;;;5072494;28;20278;-64
2022/06/12 02:49:47;;;;;;;22.77;18.08;;;28.30;99.90;;;;;;5072816;28;20027;-66
2022/06/12 02:52:21;;;;;;;27.63;18.77;;;28.30;99.90;;;;;;5074099;28;20028;-64
2022/06/12 02:55:11;;;;;;;26.58;19.67;;;28.50;99.90;;;;;;5073638;28;20587;-67
2022/06/12 02:57:50;;;;;;;34.05;22.42;;;28.60;99.90;;;;;;5072833;28;20040;-63
2022/06/12 03:00:22;;;;;;;31.27;20.08;;;28.70;99.90;;;;;;5079341;28;20021;-64
2022/06/12 03:03:08;;;;;;;184.52;133.77;;;28.70;99.90;;;;;;5082971;28;20032;-64
2022/06/12 03:05:39;;;;;;;28.27;19.25;;;28.80;99.90;;;;;;5077168;28;20050;-64
2022/06/12 03:08:19;;;;;;;22.63;17.95;;;28.90;99.90;;;;;;5078099;28;20036;-64
2022/06/12 03:10:59;;;;;;;23.70;17.25;;;29.00;99.90;;;;;;5077895;28;20393;-64
2022/06/12 03:13:28;;;;;;;22.52;16.88;;;29.00;99.90;;;;;;5081146;28;20454;-65
2022/06/12 03:15:57;;;;;;;24.75;16.55;;;29.10;99.90;;;;;;5075260;28;20517;-64
2022/06/12 03:18:34;;;;;;;19.88;15.38;;;29.20;99.90;;;;;;5079783;28;20053;-64
2022/06/12 03:21:18;;;;;;;24.52;16.90;;;29.20;99.90;;;;;;5077154;28;20440;-63
2022/06/12 03:24:14;;;;;;;19.65;15.35;;;29.30;99.90;;;;;;5076091;28;20496;-64
2022/06/12 03:27:20;;;;;;;19.75;15.30;;;29.40;99.90;;;;;;5081302;28;20059;-63
2022/06/12 03:29:54;;;;;;;22.52;14.02;;;29.40;99.90;;;;;;5076454;28;20020;-64
2022/06/12 03:32:31;;;;;;;21.17;14.50;;;29.40;99.90;;;;;;5073137;28;20036;-63
2022/06/12 03:35:04;;;;;;;28.48;14.90;;;29.40;99.90;;;;;;5069797;28;20029;-64
2022/06/12 03:37:50;;;;;;;20.65;13.35;;;29.40;99.90;;;;;;5071633;28;20283;-64
2022/06/12 03:40:34;;;;;;;19.88;13.38;;;29.50;99.90;;;;;;5066959;28;20503;-64
2022/06/12 03:43:10;;;;;;;17.05;11.60;;;29.70;99.90;;;;;;5070601;28;20028;-64
2022/06/12 03:45:43;;;;;;;15.40;11.02;;;30.00;99.90;;;;;;5071139;28;20027;-65
2022/06/12 03:48:21;;;;;;;13.52;9.82;;;30.10;99.90;;;;;;5071691;28;20024;-65
2022/06/12 03:51:01;;;;;;;15.32;10.18;;;30.20;99.90;;;;;;5067361;28;20029;-64
2022/06/12 03:53:34;;;;;;;15.50;10.68;;;30.20;99.90;;;;;;5055607;28;20081;-65
2022/06/12 03:59:12;;;;;;;15.13;11.55;;;30.00;99.90;;;;;;5070729;28;20086;-62
2022/06/12 04:01:41;;;;;;;19.33;14.18;;;30.10;99.90;;;;;;5070895;28;20108;-64
2022/06/12 04:04:08;;;;;;;18.13;12.80;;;30.00;99.90;;;;;;5070443;28;20027;-64
2022/06/12 04:06:37;;;;;;;17.35;12.18;;;30.00;99.90;;;;;;5072400;28;20056;-63
2022/06/12 04:09:12;;;;;;;20.05;13.73;;;30.00;99.90;;;;;;5064565;28;20025;-64
2022/06/12 04:11:41;;;;;;;23.50;12.00;;;29.90;99.90;;;;;;5065628;28;20100;-64
2022/06/12 04:14:15;;;;;;;20.27;12.00;;;30.00;99.90;;;;;;5064683;28;20547;-64
2022/06/12 04:16:52;;;;;;;16.85;10.20;;;30.00;99.90;;;;;;5064205;28;20036;-63
2022/06/12 04:19:23;;;;;;;14.23;9.48;;;30.00;99.90;;;;;;5066260;28;20031;-64
2022/06/12 04:21:54;;;;;;;14.93;11.33;;;30.20;99.90;;;;;;5068974;28;20446;-65
2022/06/12 04:24:30;;;;;;;11.73;10.27;;;30.20;99.90;;;;;;5072462;28;20032;-63
2022/06/12 04:27:05;;;;;;;14.80;10.52;;;30.30;99.90;;;;;;5070316;28;20021;-65
2022/06/12 04:29:37;;;;;;;14.65;11.73;;;30.20;99.90;;;;;;5069463;28;20028;-65
2022/06/12 04:32:06;;;;;;;14.85;11.98;;;30.30;99.90;;;;;;5070008;28;20020;-65
2022/06/12 04:34:40;;;;;;;16.70;12.18;;;30.30;99.90;;;;;;5069839;28;20028;-65
2022/06/12 04:37:15;;;;;;;19.45;12.48;;;30.40;99.90;;;;;;5070323;28;20032;-64
2022/06/12 04:39:43;;;;;;;15.35;11.70;;;30.60;99.90;;;;;;5072060;28;20104;-65
2022/06/12 04:42:13;;;;;;;16.33;12.60;;;30.60;99.90;;;;;;5073142;28;20039;-66
2022/06/12 04:44:41;;;;;;;19.63;10.95;;;30.70;99.90;;;;;;5066285;28;20032;-64
2022/06/12 04:47:11;;;;;;;17.33;10.43;;;30.70;99.90;;;;;;5070612;28;20381;-65
2022/06/12 04:49:38;;;;;;;13.50;10.57;;;30.90;99.90;;;;;;5072356;28;20020;-65
2022/06/12 04:52:08;;;;;;;15.32;9.75;;;30.90;99.90;;;;;;5072244;28;20473;-65
2022/06/12 04:54:36;;;;;;;15.88;10.60;;;31.00;99.90;;;;;;5070691;28;20032;-65
2022/06/12 04:57:04;;;;;;;24.23;12.40;;;31.00;99.90;;;;;;5063202;28;20051;-65
2022/06/12 04:59:31;;;;;;;13.77;9.90;;;31.00;99.90;;;;;;5072695;28;20488;-64
2022/06/12 05:01:58;;;;;;;15.82;9.80;;;31.00;99.90;;;;;;5068199;28;20039;-64
2022/06/12 05:04:26;;;;;;;15.68;9.13;;;31.00;99.90;;;;;;5065632;28;20035;-63
2022/06/12 05:06:53;;;;;;;13.73;9.77;;;30.90;99.90;;;;;;5063494;28;20032;-64
2022/06/12 05:09:23;;;;;;;12.50;10.02;;;31.00;99.90;;;;;;5064563;28;20112;-65
2022/06/12 05:11:49;;;;;;;17.85;11.13;;;31.10;99.90;;;;;;5060450;28;20389;-64
2022/06/12 05:14:16;;;;;;;12.75;10.13;;;31.10;99.90;;;;;;5062782;28;20036;-63
2022/06/12 05:16:49;;;;;;;10.65;9.35;;;31.20;99.90;;;;;;5063198;28;20031;-66
2022/06/12 05:19:21;;;;;;;16.88;10.32;;;31.30;99.90;;;;;;5070023;28;20079;-64
2022/06/12 05:21:47;;;;;;;14.55;11.13;;;31.40;99.90;;;;;;5067611;28;20021;-64
2022/06/12 05:24:15;;;;;;;21.05;12.00;;;31.40;99.90;;;;;;5079006;28;20024;-66
2022/06/12 05:26:45;;;;;;;12.73;9.23;;;31.50;99.90;;;;;;5082818;28;20031;-65
2022/06/12 05:29:17;;;;;;;15.93;11.05;;;31.60;99.90;;;;;;5083909;28;20024;-64
2022/06/12 05:31:46;;;;;;;12.10;9.85;;;31.60;99.90;;;;;;5079630;28;20535;-64
2022/06/12 05:34:14;;;;;;;17.17;10.35;;;31.50;99.90;;;;;;5077735;28;20024;-64
2022/06/12 05:36:42;;;;;;;14.90;10.43;;;31.50;99.90;;;;;;5069448;28;20068;-65
2022/06/12 05:39:09;;;;;;;15.27;10.57;;;31.50;99.90;;;;;;5067403;28;20048;-64
2022/06/12 05:41:36;;;;;;;20.35;17.05;;;31.60;99.90;;;;;;5065704;28;20468;-65
2022/06/12 05:44:03;;;;;;;24.70;18.75;;;31.50;99.90;;;;;;5063784;28;20029;-64
2022/06/12 05:46:29;;;;;;;149.25;119.15;;;31.50;99.90;;;;;;5073285;28;20484;-67
2022/06/12 05:48:56;;;;;;;22.92;17.27;;;31.50;99.90;;;;;;5077289;28;20043;-65
2022/06/12 05:51:23;;;;;;;16.95;12.80;;;31.50;99.90;;;;;;5074484;28;20032;-65
2022/06/12 05:53:50;;;;;;;22.70;17.40;;;31.50;99.90;;;;;;5072900;28;20427;-65
2022/06/12 05:56:21;;;;;;;33.40;28.88;;;31.60;99.90;;;;;;5072161;28;20103;-64
2022/06/12 05:58:48;;;;;;;24.08;20.35;;;31.70;99.90;;;;;;5071926;28;20112;-65
2022/06/12 06:01:19;;;;;;;23.77;14.00;;;31.60;99.90;;;;;;5069244;28;20095;-64
2022/06/12 06:03:46;;;;;;;13.07;9.85;;;31.60;99.90;;;;;;5071028;28;20024;-65
2022/06/12 06:06:19;;;;;;;14.05;10.02;;;31.60;99.90;;;;;;5068454;28;20035;-65
2022/06/12 06:08:46;;;;;;;25.75;13.48;;;31.80;99.90;;;;;;5068343;28;20043;-66
2022/06/12 06:11:13;;;;;;;11.73;10.23;;;31.80;99.90;;;;;;5068851;28;20067;-65
2022/06/12 06:13:40;;;;;;;13.43;10.32;;;31.90;99.90;;;;;;5070409;28;20054;-66
2022/06/12 06:16:07;;;;;;;19.38;10.90;;;31.90;99.90;;;;;;5072868;28;20024;-65
2022/06/12 06:18:36;;;;;;;13.07;9.85;;;31.90;99.90;;;;;;5070748;28;20017;-66
2022/06/12 06:21:03;;;;;;;11.05;9.23;;;32.00;99.90;;;;;;5072538;28;20013;-66
2022/06/12 06:23:30;;;;;;;13.80;9.50;;;32.00;99.90;;;;;;5068688;28;20324;-64
2022/06/12 06:25:56;;;;;;;10.40;8.45;;;32.10;99.90;;;;;;5065424;28;20032;-66
2022/06/12 06:28:23;;;;;;;13.57;9.40;;;32.20;99.90;;;;;;5068100;28;20028;-65
2022/06/12 06:30:50;;;;;;;14.77;10.23;;;32.30;99.90;;;;;;5069255;28;20025;-65
2022/06/12 06:33:17;;;;;;;11.00;9.07;;;32.40;99.90;;;;;;5069661;28;20515;-65
2022/06/12 06:35:43;;;;;;;14.20;8.80;;;32.40;99.90;;;;;;5068854;28;20016;-67
2022/06/12 06:38:10;;;;;;;13.60;9.07;;;32.50;99.90;;;;;;5067222;28;20071;-62
2022/06/12 06:40:37;;;;;;;9.60;8.40;;;32.50;99.90;;;;;;5068010;28;20028;-63
2022/06/12 06:43:04;;;;;;;14.15;9.27;;;32.50;99.90;;;;;;5062941;28;20017;-65
2022/06/12 06:48:06;;;;;;;11.68;8.75;;;32.60;99.90;;;;;;5072613;28;20025;-63
2022/06/12 06:50:34;;;;;;;21.98;17.48;;;32.70;99.90;;;;;;5075790;28;20043;-65
2022/06/12 06:53:01;;;;;;;16.45;11.98;;;32.90;99.90;;;;;;5074663;28;20031;-63
2022/06/12 06:55:29;;;;;;;15.30;11.70;;;32.90;99.90;;;;;;5076617;28;20028;-64
2022/06/12 06:57:57;;;;;;;16.02;10.25;;;33.10;99.90;;;;;;5073131;22;20063;-62
2022/06/12 07:00:30;;;;;;;14.52;9.55;;;33.10;99.60;;;;;;5042080;28;20025;-64
2022/06/12 07:02:56;;;;;;;14.50;8.45;;;33.00;99.40;;;;;;5051203;28;20029;-63
2022/06/12 07:05:23;;;;;;;11.45;8.77;;;33.00;98.10;;;;;;5049339;28;20083;-64
2022/06/12 07:07:50;;;;;;;11.63;8.02;;;33.10;98.30;;;;;;5047343;28;20068;-65
2022/06/12 07:10:20;;;;;;;10.00;8.18;;;33.30;97.10;;;;;;5049031;28;20053;-64
2022/06/12 07:12:49;;;;;;;12.48;8.32;;;33.30;96.70;;;;;;5042204;28;20033;-64
2022/06/12 07:15:16;;;;;;;21.02;15.55;;;33.30;97.10;;;;;;5038690;28;20197;-63
2022/06/12 07:17:43;;;;;;;35.60;28.00;;;33.40;97.40;;;;;;5044225;28;20071;-64
2022/06/12 07:20:13;;;;;;;58.08;45.50;;;33.50;96.60;;;;;;5043217;28;20021;-67
2022/06/12 07:22:40;;;;;;;18.58;15.60;;;33.50;96.30;;;;;;5037960;28;20029;-65
2022/06/12 07:25:08;;;;;;;15.82;8.45;;;33.40;96.10;;;;;;5037704;28;20052;-65
2022/06/12 07:27:35;;;;;;;11.57;9.15;;;33.30;95.50;;;;;;5033697;28;20044;-65
2022/06/12 07:30:01;;;;;;;11.75;9.02;;;33.20;96.60;;;;;;5040274;28;20036;-63
2022/06/12 07:32:29;;;;;;;11.75;8.60;;;33.20;95.10;;;;;;5042236;28;20024;-65
2022/06/12 07:34:56;;;;;;;11.07;8.23;;;33.10;95.20;;;;;;5042625;28;20029;-65
2022/06/12 07:37:23;;;;;;;12.15;8.23;;;33.10;95.50;;;;;;5038609;28;20024;-64
2022/06/12 07:39:50;;;;;;;14.48;8.35;;;33.10;95.90;;;;;;5043398;28;20470;-63
2022/06/12 07:42:17;;;;;;;12.20;8.45;;;33.10;96.40;;;;;;5038981;28;20025;-64
2022/06/12 07:44:44;;;;;;;11.88;8.68;;;33.00;95.80;;;;;;5022726;28;20459;-64
2022/06/12 07:47:10;;;;;;;9.30;7.97;;;32.90;96.00;;;;;;5034426;28;20020;-64
2022/06/12 07:49:38;;;;;;;11.13;8.00;;;32.80;96.40;;;;;;5034277;28;20092;-63
2022/06/12 07:52:08;;;;;;;13.30;9.32;;;32.80;96.90;;;;;;5049446;28;20029;-63
2022/06/12 07:54:36;;;;;;;14.00;9.18;;;32.80;96.40;;;;;;5054052;28;20099;-63
2022/06/12 07:57:03;;;;;;;10.88;9.05;;;32.70;96.50;;;;;;5053954;28;20510;-64
2022/06/12 07:59:30;;;;;;;15.35;8.98;;;32.80;96.70;;;;;;5053966;28;20108;-63
2022/06/12 08:01:57;;;;;;;11.48;8.25;;;32.80;96.40;;;;;;5038674;28;20378;-64
2022/06/12 08:04:24;;;;;;;12.43;8.68;;;32.80;96.70;;;;;;5022447;28;20109;-64
2022/06/12 08:06:51;;;;;;;12.23;9.32;;;32.90;97.20;;;;;;5014103;28;20022;-63
2022/06/12 08:09:19;;;;;;;13.73;8.70;;;32.90;96.20;;;;;;5030276;28;20537;-63
2022/06/12 08:11:48;;;;;;;21.08;9.20;;;32.90;96.40;;;;;;5033364;28;20025;-64
2022/06/12 08:14:17;;;;;;;15.30;10.85;;;32.70;95.20;;;;;;5033798;28;20033;-63
2022/06/12 08:16:44;;;;;;;15.98;12.80;;;32.70;95.30;;;;;;5033663;28;20482;-63
2022/06/12 08:22:01;;;;;;;21.15;11.90;;;32.60;96.00;;;;;;5033275;28;20434;-63
2022/06/12 08:24:29;;;;;;;29.60;15.10;;;32.60;95.80;;;;;;5042100;28;20029;-63
2022/06/12 08:26:56;;;;;;;37.85;20.83;;;32.50;95.50;;;;;;5053111;28;20059;-62
2022/06/12 08:29:24;;;;;;;25.88;15.73;;;32.50;95.30;;;;;;5022381;28;20370;-63
2022/06/12 08:31:57;;;;;;;34.97;16.83;;;32.50;95.60;;;;;;5037797;28;20086;-63
2022/06/12 08:34:32;;;;;;;28.38;16.70;;;32.50;96.70;;;;;;5053561;28;20052;-63
2022/06/12 08:37:02;;;;;;;38.60;17.30;;;32.50;97.10;;;;;;5053405;28;20500;-64
2022/06/12 08:39:30;;;;;;;16.75;10.75;;;32.40;97.00;;;;;;5053389;28;20029;-64
2022/06/12 08:41:59;;;;;;;37.85;16.33;;;32.40;96.50;;;;;;5039304;28;20034;-63
2022/06/12 08:44:31;;;;;;;24.63;13.32;;;32.40;96.80;;;;;;5033225;28;20064;-63
2022/06/12 08:47:00;;;;;;;25.40;13.90;;;32.40;96.50;;;;;;5033383;28;20828;-63
2022/06/12 08:49:36;;;;;;;25.05;17.45;;;32.50;96.50;;;;;;5048453;28;20029;-63
2022/06/12 08:52:09;;;;;;;20.00;13.23;;;32.50;95.90;;;;;;5042662;28;20414;-62
2022/06/12 08:55:15;;;;;;;31.08;15.05;;;32.50;96.10;;;;;;5054180;28;20421;-64
2022/06/12 08:57:53;;;;;;;20.88;13.75;;;32.40;96.20;;;;;;5047802;28;20068;-64
2022/06/12 09:00:25;;;;;;;21.67;11.52;;;32.40;96.30;;;;;;5026841;28;20032;-64
2022/06/12 09:02:52;;;;;;;18.20;11.45;;;32.40;96.30;;;;;;5044697;28;20398;-63
2022/06/12 09:05:26;;;;;;;23.90;15.20;;;32.40;96.70;;;;;;5052356;28;20024;-63
2022/06/12 09:07:59;;;;;;;13.60;10.80;;;32.40;96.40;;;;;;5050654;28;20018;-62
2022/06/12 09:10:51;;;;;;;25.77;13.18;;;32.50;95.90;;;;;;5040045;28;20068;-61
2022/06/12 09:13:37;;;;;;;15.77;10.85;;;32.40;95.60;;;;;;5039998;28;20024;-62
2022/06/12 09:16:24;;;;;;;17.30;11.60;;;32.40;95.80;;;;;;5038555;28;20329;-62
2022/06/12 09:19:10;;;;;;;20.20;13.30;;;32.40;96.20;;;;;;5039620;28;20108;-64
2022/06/12 09:22:02;;;;;;;22.42;14.77;;;32.40;95.40;;;;;;5039275;28;20029;-64
2022/06/12 09:24:57;;;;;;;26.50;16.27;;;32.30;96.80;;;;;;5040134;28;20108;-62
2022/06/12 09:27:26;;;;;;;34.38;20.05;;;32.30;96.80;;;;;;5033944;28;20037;-62
2022/06/12 09:29:58;;;;;;;79.53;49.38;;;32.30;96.70;;;;;;5041459;28;20029;-59
2022/06/12 09:32:31;;;;;;;446.83;295.30;;;32.30;97.20;;;;;;5042252;28;20466;-61
2022/06/12 09:34:59;;;;;;;1999.90;999.90;;;32.30;97.70;;;;;;5035338;28;20120;-63
2022/06/12 09:40:32;;;;;;;1514.68;867.60;;;32.20;98.40;;;;;;5036271;28;20030;-61
2022/06/12 11:07:23;;;;;;;83.00;54.42;;;28.00;99.90;;;;;;5123482;27;20431;-65
2022/06/12 11:10:12;;;;;;;38.85;25.00;;;29.00;99.90;;;;;;5103573;28;20020;-64
2022/06/12 11:13:14;;;;;;;50.55;35.60;;;29.00;99.90;;;;;;5103453;28;20070;-63
2022/06/12 11:16:05;;;;;;;34.53;20.75;;;29.00;99.90;;;;;;5104583;28;20020;-64
2022/06/12 11:18:31;;;;;;;28.98;19.85;;;28.90;99.90;;;;;;5106038;28;20024;-60
2022/06/12 11:21:24;;;;;;;34.80;22.45;;;29.00;99.90;;;;;;5110013;28;20050;-63
2022/06/12 11:24:11;;;;;;;70.85;34.28;;;29.10;99.90;;;;;;5105206;28;20017;-63
2022/06/12 11:26:43;;;;;;;28.80;20.45;;;29.10;99.90;;;;;;5104180;28;20035;-63
2022/06/12 11:29:22;;;;;;;113.10;82.82;;;29.20;99.90;;;;;;5100862;28;20074;-63
2022/06/12 11:31:52;;;;;;;62.85;45.97;;;29.10;99.90;;;;;;5108125;28;20031;-63
2022/06/12 11:34:29;;;;;;;48.75;33.95;;;28.90;99.90;;;;;;5106519;28;20027;-62
2022/06/12 11:37:16;;;;;;;38.55;24.92;;;28.90;99.90;;;;;;5108867;28;20024;-62
2022/06/12 11:40:09;;;;;;;38.25;26.27;;;28.80;99.90;;;;;;5105822;28;20043;-61
2022/06/12 11:42:51;;;;;;;69.95;46.50;;;28.80;99.90;;;;;;5107151;28;20036;-61
2022/06/12 11:45:33;;;;;;;46.03;28.50;;;28.90;99.90;;;;;;5107335;28;20085;-62
2022/06/12 11:48:08;;;;;;;;;;;29.00;99.90;;;;;;5106628;28;20024;-62
2022/06/12 11:50:42;;;;;;;76.78;55.03;;;29.00;99.90;;;;;;5106182;28;19904;-64
2022/06/12 11:53:36;;;;;;;112.13;79.43;;;28.90;99.90;;;;;;5107049;28;20028;-64
2022/06/12 11:56:25;;;;;;;68.43;47.20;;;28.90;99.90;;;;;;5102446;28;20105;-63
2022/06/12 11:58:53;;;;;;;81.93;47.20;;;29.00;99.90;;;;;;5096687;28;20431;-64
2022/06/12 12:01:44;;;;;;;74.93;45.60;;;28.90;99.90;;;;;;5096107;28;20024;-64
2022/06/12 12:04:31;;;;;;;72.78;45.40;;;28.90;99.90;;;;;;5097510;28;20401;-63
2022/06/12 12:07:27;;;;;;;57.28;38.05;;;28.70;99.90;;;;;;5090762;28;20044;-65
2022/06/12 12:10:03;;;;;;;64.90;39.80;;;28.70;99.90;;;;;;5084652;28;20036;-65
2022/06/12 12:12:37;;;;;;;64.07;42.10;;;28.70;99.90;;;;;;5085052;28;20398;-65
2022/06/12 12:15:12;;;;;;;67.07;43.92;;;28.60;99.90;;;;;;5086346;28;20078;-66
2022/06/12 12:17:42;;;;;;;62.35;41.92;;;28.70;99.90;;;;;;5086000;28;20069;-66
2022/06/12 12:20:33;;;;;;;71.28;41.83;;;28.80;99.90;;;;;;5089481;28;20469;-67
2022/06/12 12:23:25;;;;;;;62.00;35.05;;;28.80;99.90;;;;;;5090680;28;20060;-66
2022/06/12 12:26:01;;;;;;;124.10;72.20;;;28.80;99.90;;;;;;5083043;28;20024;-67
2022/06/12 12:28:35;;;;;;;65.15;43.55;;;28.80;99.90;;;;;;5088216;28;20104;-66
2022/06/12 12:31:10;;;;;;;88.80;62.85;;;28.90;99.90;;;;;;5085234;28;20534;-66
2022/06/12 12:33:38;;;;;;;72.78;46.03;;;28.90;99.90;;;;;;5080008;28;20115;-66
2022/06/12 12:41:47;;;;;;;49.10;29.02;;;28.90;99.90;;;;;;5081027;28;20080;-66
2022/06/12 12:44:28;;;;;;;38.60;28.23;;;28.90;99.90;;;;;;5079801;28;20444;-66
2022/06/12 12:46:55;;;;;;;37.55;28.25;;;28.90;99.90;;;;;;5082458;28;20037;-66
2022/06/12 12:49:24;;;;;;;41.22;27.30;;;28.90;99.90;;;;;;5084208;28;20481;-66
2022/06/12 12:52:03;;;;;;;39.00;26.65;;;28.90;99.90;;;;;;5085387;28;20025;-66
2022/06/12 12:54:40;;;;;;;40.28;27.20;;;28.90;99.90;;;;;;5082787;28;20030;-66
2022/06/12 12:57:07;;;;;;;55.88;33.75;;;29.00;99.90;;;;;;5082956;28;20020;-67
2022/06/12 12:59:45;;;;;;;39.60;25.45;;;29.00;99.90;;;;;;5085742;28;20393;-66
2022/06/12 13:02:26;;;;;;;28.13;21.27;;;29.00;99.90;;;;;;5081601;28;20111;-66
2022/06/12 13:04:56;;;;;;;27.42;19.33;;;28.90;99.90;;;;;;5082680;28;20032;-66
2022/06/12 13:07:43;;;;;;;59.55;37.42;;;28.70;99.90;;;;;;5085192;28;20039;-66
2022/06/12 13:10:17;;;;;;;93.50;64.35;;;28.60;99.90;;;;;;5091353;28;20124;-66
2022/06/12 13:12:46;;;;;;;148.68;109.55;;;28.40;99.90;;;;;;5079702;28;20078;-65
2022/06/12 13:15:35;;;;;;;66.05;49.00;;;28.40;99.90;;;;;;5087493;28;20027;-65
2022/06/12 13:18:20;;;;;;;40.42;33.55;;;28.30;99.90;;;;;;5085848;28;20038;-65
2022/06/12 13:21:01;;;;;;;44.67;31.08;;;28.20;99.90;;;;;;5089390;28;20052;-66
2022/06/12 13:23:37;;;;;;;32.90;25.98;;;28.10;99.90;;;;;;5084977;28;20025;-65
2022/06/12 13:26:08;;;;;;;17.05;14.00;;;28.00;99.90;;;;;;5083806;28;20059;-64
2022/06/12 13:28:36;;;;;;;20.48;18.13;;;28.00;99.90;;;;;;5084182;28;20128;-64
2022/06/12 13:31:04;;;;;;;16.50;14.73;;;28.10;99.90;;;;;;5079515;28;20029;-65
2022/06/12 13:33:34;;;;;;;25.60;21.30;;;28.10;99.90;;;;;;5080215;28;20029;-65
2022/06/12 13:36:40;;;;;;;31.13;26.75;;;28.10;99.90;;;;;;5084411;28;20380;-65
2022/06/12 13:39:37;;;;;;;17.98;13.43;;;28.10;99.90;;;;;;5075424;28;20421;-65
2022/06/12 13:42:11;;;;;;;35.78;25.17;;;28.00;99.90;;;;;;5078853;28;20553;-65
2022/06/12 13:44:38;;;;;;;26.67;18.27;;;27.90;99.90;;;;;;5086065;28;20119;-65
2022/06/12 13:47:25;;;;;;;32.47;25.98;;;27.90;99.90;;;;;;5082137;28;20016;-65
2022/06/12 13:49:54;;;;;;;62.58;40.58;;;27.80;99.90;;;;;;5071992;28;20029;-64
2022/06/12 13:52:35;;;;;;;80.97;55.75;;;27.80;99.90;;;;;;5073988;28;20024;-63
2022/06/12 13:55:02;;;;;;;86.75;58.55;;;27.60;99.90;;;;;;5079093;28;20469;-64
2022/06/12 13:57:33;;;;;;;46.15;25.13;;;27.50;99.90;;;;;;5074847;28;20439;-64
2022/06/12 14:00:18;;;;;;;21.50;12.13;;;27.40;99.90;;;;;;5075610;28;20020;-63
2022/06/12 14:02:45;;;;;;;13.25;10.52;;;27.10;99.90;;;;;;5077300;28;20175;-63
2022/06/12 14:05:18;;;;;;;23.70;12.07;;;27.00;99.90;;;;;;5075429;28;20509;-62
2022/06/12 14:07:47;;;;;;;27.58;16.45;;;26.90;99.90;;;;;;5080799;28;20539;-62
2022/06/12 14:10:22;;;;;;;44.25;27.33;;;26.90;99.90;;;;;;5083748;28;20539;-63
2022/06/12 14:12:49;;;;;;;47.47;19.52;;;26.90;99.90;;;;;;5082606;28;20500;-62
2022/06/12 14:15:33;;;;;;;59.45;32.15;;;26.90;99.90;;;;;;5082909;28;20107;-63
2022/06/12 14:18:01;;;;;;;48.70;32.30;;;26.90;99.90;;;;;;5086538;28;20032;-61
2022/06/12 14:20:35;;;;;;;57.92;34.60;;;26.90;99.90;;;;;;5084884;28;20020;-63
2022/06/12 14:23:24;;;;;;;116.47;67.55;;;26.80;99.90;;;;;;5083199;28;20035;-65
2022/06/12 14:26:01;;;;;;;139.45;88.53;;;26.90;99.90;;;;;;5083451;28;20074;-64
2022/06/12 14:28:35;;;;;;;26.58;16.83;;;26.80;99.90;;;;;;5083492;28;20031;-62
2022/06/12 14:31:06;;;;;;;77.88;41.92;;;26.80;99.90;;;;;;5080761;28;20092;-63
2022/06/12 14:33:36;;;;;;;29.48;14.13;;;26.80;99.90;;;;;;5080490;28;20051;-64
2022/06/12 14:36:06;;;;;;;14.85;8.55;;;26.80;99.90;;;;;;5078337;28;20427;-63
2022/06/12 14:38:35;;;;;;;18.08;11.32;;;26.90;99.90;;;;;;5082636;28;20099;-63
2022/06/12 14:41:03;;;;;;;36.13;24.73;;;26.90;99.90;;;;;;5079612;28;20029;-62
2022/06/12 14:43:37;;;;;;;49.38;23.92;;;26.70;99.90;;;;;;5075996;28;20027;-65